Time;durP1;ratioP1;P1;durP2;ratioP2;P2;SDS_P1;SDS_P2;PMS_P1;PMS_P2;Temp;Humidity;BMP_temperature;BMP_pressure;BME280_temperature;BME280_humidity;BME280_pressure;Samples;Min_cycle;Max_cycle;Signal;HPM_P1;HPM_P2
2021/05/25 00:01:45;;;;;;;1.20;1.17;;;11.50;99.90;;;;;;5061256;28;20198;-76
2021/05/25 00:04:12;;;;;;;2.88;1.63;;;11.50;99.90;;;;;;5067305;28;20268;-77
2021/05/25 00:06:38;;;;;;;1.98;1.48;;;11.50;99.90;;;;;;5055915;28;20223;-77
2021/05/25 00:09:06;;;;;;;1.88;1.77;;;11.50;99.90;;;;;;5064960;28;20739;-76
2021/05/25 00:11:52;;;;;;;2.42;1.70;;;11.50;99.90;;;;;;5054411;28;20286;-77
2021/05/25 00:14:21;;;;;;;2.25;2.05;;;11.40;99.90;;;;;;5067938;28;20191;-76
2021/05/25 00:16:48;;;;;;;1.23;1.17;;;11.50;99.90;;;;;;5054246;28;20958;-77
2021/05/25 00:19:16;;;;;;;3.63;1.90;;;11.40;99.90;;;;;;5063448;28;20195;-76
2021/05/25 00:21:42;;;;;;;1.80;1.63;;;11.40;99.90;;;;;;5061669;28;20676;-76
2021/05/25 00:24:09;;;;;;;1.77;1.67;;;11.40;99.90;;;;;;5056532;28;20195;-76
2021/05/25 00:26:37;;;;;;;3.47;1.73;;;11.40;99.90;;;;;;5067392;28;20199;-76
2021/05/25 00:29:04;;;;;;;3.45;1.85;;;11.40;99.90;;;;;;5039243;28;20289;-76
2021/05/25 00:31:32;;;;;;;1.48;1.42;;;11.40;99.90;;;;;;5062449;28;20243;-76
2021/05/25 00:34:06;;;;;;;1.80;1.70;;;11.40;99.90;;;;;;5066179;28;20204;-76
2021/05/25 00:36:35;;;;;;;2.22;1.70;;;11.30;99.90;;;;;;5070501;28;20562;-76
2021/05/25 00:39:03;;;;;;;2.08;1.73;;;11.30;99.90;;;;;;5060274;28;20198;-76
2021/05/25 00:41:30;;;;;;;1.65;1.55;;;11.30;99.90;;;;;;5061691;28;20219;-76
2021/05/25 00:43:57;;;;;;;2.13;1.92;;;11.40;99.90;;;;;;5063298;28;20194;-76
2021/05/25 00:46:24;;;;;;;1.67;1.58;;;11.40;99.90;;;;;;5055367;28;20195;-76
2021/05/25 00:48:51;;;;;;;1.88;1.67;;;11.50;99.90;;;;;;5053807;28;20214;-76
2021/05/25 00:51:18;;;;;;;3.28;1.73;;;11.60;99.90;;;;;;5063985;28;20741;-76
2021/05/25 00:53:44;;;;;;;1.65;1.52;;;11.60;99.90;;;;;;5062609;28;20198;-77
2021/05/25 00:56:12;;;;;;;3.55;1.65;;;11.50;99.90;;;;;;5056661;28;20543;-78
2021/05/25 00:58:39;;;;;;;1.95;1.80;;;11.50;99.90;;;;;;5068821;28;20232;-77
2021/05/25 01:01:06;;;;;;;2.40;2.20;;;11.50;99.90;;;;;;5056948;28;20219;-77
2021/05/25 01:03:33;;;;;;;2.13;2.03;;;11.50;99.90;;;;;;5062123;28;20257;-78
2021/05/25 01:06:01;;;;;;;2.30;1.85;;;11.60;99.90;;;;;;5063813;28;20230;-77
2021/05/25 01:08:28;;;;;;;2.40;2.00;;;11.60;99.90;;;;;;5071542;28;20684;-76
2021/05/25 01:11:00;;;;;;;1.80;1.70;;;11.60;99.90;;;;;;5060390;28;20509;-76
2021/05/25 01:13:28;;;;;;;4.00;1.50;;;11.50;99.90;;;;;;5051822;28;20203;-76
2021/05/25 01:15:57;;;;;;;2.45;1.73;;;11.70;99.90;;;;;;5051528;28;20207;-76
2021/05/25 01:18:24;;;;;;;1.60;1.50;;;11.70;99.90;;;;;;5051005;28;20226;-76
2021/05/25 01:20:51;;;;;;;3.15;1.70;;;11.60;99.90;;;;;;5053212;28;20254;-77
2021/05/25 01:23:19;;;;;;;1.65;1.50;;;11.60;99.90;;;;;;5064138;28;20210;-77
2021/05/25 01:25:52;;;;;;;4.72;1.83;;;11.60;99.90;;;;;;5087501;28;20189;-76
2021/05/25 01:28:21;;;;;;;4.38;1.73;;;11.50;99.90;;;;;;5075868;28;20218;-77
2021/05/25 01:30:51;;;;;;;3.30;1.20;;;11.50;99.90;;;;;;5074034;28;20222;-77
2021/05/25 01:33:19;;;;;;;4.20;1.70;;;11.50;99.90;;;;;;5074446;28;20191;-77
2021/05/25 01:35:46;;;;;;;1.33;1.10;;;11.50;99.90;;;;;;5073379;28;20688;-77
2021/05/25 01:38:24;;;;;;;1.35;1.13;;;11.40;99.90;;;;;;5072682;28;20202;-77
2021/05/25 01:40:58;;;;;;;2.10;1.40;;;11.50;99.90;;;;;;5055897;28;20222;-77
2021/05/25 01:43:25;;;;;;;1.17;1.05;;;11.50;99.90;;;;;;5055051;28;20205;-77
2021/05/25 01:45:52;;;;;;;3.15;1.83;;;11.40;99.90;;;;;;5075911;28;20201;-76
2021/05/25 01:48:20;;;;;;;2.13;1.13;;;11.40;99.90;;;;;;5074080;28;20577;-77
2021/05/25 01:50:47;;;;;;;4.78;1.73;;;11.40;99.90;;;;;;5075895;28;20348;-77
2021/05/25 01:53:16;;;;;;;1.52;1.17;;;11.40;99.90;;;;;;5058458;28;20348;-77
2021/05/25 01:55:45;;;;;;;1.30;1.20;;;11.50;99.90;;;;;;5075269;28;20195;-76
2021/05/25 01:58:14;;;;;;;1.15;1.05;;;11.60;99.90;;;;;;5068878;28;20249;-76
2021/05/25 02:00:43;;;;;;;1.38;1.27;;;11.40;99.90;;;;;;5055460;28;20262;-77
2021/05/25 02:03:10;;;;;;;1.58;1.48;;;11.50;99.90;;;;;;5063464;28;20573;-77
2021/05/25 02:05:37;;;;;;;1.80;1.17;;;11.60;99.90;;;;;;5061283;28;20207;-77
2021/05/25 02:08:06;;;;;;;1.88;1.27;;;11.50;99.90;;;;;;5058644;28;20282;-77
2021/05/25 02:10:35;;;;;;;3.28;1.25;;;11.60;99.90;;;;;;5076321;28;20305;-77
2021/05/25 02:13:04;;;;;;;2.72;1.13;;;11.60;99.90;;;;;;5075099;28;20210;-77
2021/05/25 02:15:31;;;;;;;2.58;1.35;;;11.60;99.90;;;;;;5067356;28;20586;-77
2021/05/25 02:18:04;;;;;;;1.40;1.30;;;11.50;99.90;;;;;;5054676;28;20287;-77
2021/05/25 02:20:30;;;;;;;2.28;1.40;;;11.40;99.90;;;;;;5037368;28;20317;-77
2021/05/25 02:22:57;;;;;;;2.28;1.30;;;11.40;99.90;;;;;;5055215;28;20288;-76
2021/05/25 02:25:24;;;;;;;1.60;1.45;;;11.40;99.90;;;;;;5054835;28;20727;-76
2021/05/25 02:27:50;;;;;;;2.22;1.27;;;11.30;99.90;;;;;;5054115;28;20192;-76
2021/05/25 02:30:19;;;;;;;1.20;1.10;;;11.20;99.90;;;;;;5054894;28;20281;-77
2021/05/25 02:32:46;;;;;;;1.40;1.20;;;11.20;99.90;;;;;;5055032;28;20569;-76
2021/05/25 02:35:13;;;;;;;1.42;1.33;;;11.10;99.90;;;;;;5054136;28;20210;-77
2021/05/25 02:37:39;;;;;;;1.17;1.08;;;11.00;99.90;;;;;;5054209;28;20291;-76
2021/05/25 02:40:08;;;;;;;1.35;0.90;;;10.90;99.90;;;;;;5057257;28;20215;-77
2021/05/25 02:42:34;;;;;;;1.25;1.17;;;10.90;99.90;;;;;;5054202;28;20195;-77
2021/05/25 02:45:01;;;;;;;2.53;1.23;;;10.80;99.90;;;;;;5054293;28;20297;-76
2021/05/25 02:47:29;;;;;;;1.13;1.13;;;10.80;99.90;;;;;;5071417;28;20198;-76
2021/05/25 02:50:06;;;;;;;2.33;1.17;;;10.70;99.90;;;;;;5074139;28;20219;-76
2021/05/25 02:52:33;;;;;;;3.80;1.50;;;10.70;99.90;;;;;;5073739;28;20197;-76
2021/05/25 02:54:59;;;;;;;1.45;1.35;;;10.70;99.90;;;;;;5072697;28;20199;-76
2021/05/25 02:57:26;;;;;;;1.35;1.15;;;10.70;99.90;;;;;;5074679;28;20198;-77
2021/05/25 02:59:53;;;;;;;2.03;1.23;;;10.70;99.90;;;;;;5066830;28;20218;-77
2021/05/25 03:02:20;;;;;;;6.05;1.77;;;10.70;99.90;;;;;;5053521;28;20673;-77
2021/05/25 03:04:47;;;;;;;1.63;1.40;;;10.80;99.90;;;;;;5053610;28;20282;-77
2021/05/25 03:07:14;;;;;;;2.13;1.20;;;10.80;99.90;;;;;;5053474;28;20675;-76
2021/05/25 03:09:40;;;;;;;12.07;1.20;;;10.80;99.90;;;;;;5054230;28;20246;-77
2021/05/25 03:12:08;;;;;;;1.73;1.10;;;10.70;99.90;;;;;;5053184;28;20203;-76
2021/05/25 03:14:34;;;;;;;2.00;1.30;;;10.70;99.90;;;;;;5054438;28;20252;-77
2021/05/25 03:17:01;;;;;;;2.00;1.08;;;10.90;99.90;;;;;;5057773;28;20203;-76
2021/05/25 03:19:28;;;;;;;2.03;1.38;;;10.80;99.90;;;;;;5062564;28;20272;-77
2021/05/25 03:21:55;;;;;;;1.42;1.33;;;10.80;99.90;;;;;;5067017;28;20213;-76
2021/05/25 03:24:23;;;;;;;2.72;1.00;;;10.80;99.90;;;;;;5073701;28;20195;-76
2021/05/25 03:26:50;;;;;;;3.05;1.77;;;10.80;99.90;;;;;;5072927;28;20202;-77
2021/05/25 03:29:17;;;;;;;4.90;1.25;;;10.80;99.90;;;;;;5072270;28;20600;-77
2021/05/25 03:31:45;;;;;;;1.27;1.17;;;10.70;99.90;;;;;;5069198;28;20237;-77
2021/05/25 03:34:12;;;;;;;3.28;1.30;;;10.70;99.90;;;;;;5052848;28;20570;-76
2021/05/25 03:36:38;;;;;;;1.23;1.13;;;10.70;99.90;;;;;;5052849;28;20209;-76
2021/05/25 03:39:06;;;;;;;1.83;1.35;;;10.70;99.90;;;;;;5053699;28;20278;-77
2021/05/25 03:41:33;;;;;;;1.90;1.25;;;10.80;99.90;;;;;;5053183;28;20291;-77
2021/05/25 03:44:01;;;;;;;1.80;1.33;;;10.70;99.90;;;;;;5036370;28;20280;-76
2021/05/25 03:46:27;;;;;;;2.22;1.35;;;10.80;99.90;;;;;;5053107;28;20211;-77
2021/05/25 03:48:54;;;;;;;1.40;1.23;;;10.90;99.90;;;;;;5061882;28;20215;-76
2021/05/25 03:51:21;;;;;;;1.50;1.20;;;10.90;99.90;;;;;;5074348;28;20229;-76
2021/05/25 03:53:50;;;;;;;1.17;1.08;;;11.00;99.90;;;;;;5062270;28;20206;-77
2021/05/25 03:56:24;;;;;;;2.22;1.10;;;10.90;99.90;;;;;;5036805;28;20274;-77
2021/05/25 03:58:52;;;;;;;3.40;1.10;;;10.80;99.90;;;;;;5068066;28;20204;-76
2021/05/25 04:01:20;;;;;;;2.53;1.00;;;10.90;99.90;;;;;;5073713;28;20207;-77
2021/05/25 04:03:47;;;;;;;1.20;1.10;;;10.80;99.90;;;;;;5070854;28;20202;-77
2021/05/25 04:06:14;;;;;;;1.75;1.30;;;10.80;99.90;;;;;;5072041;28;20720;-77
2021/05/25 04:08:40;;;;;;;1.92;1.00;;;10.80;99.90;;;;;;5071940;28;20267;-76
2021/05/25 04:11:07;;;;;;;1.02;0.95;;;10.80;99.90;;;;;;5071164;28;20214;-77
2021/05/25 04:13:35;;;;;;;1.98;1.15;;;10.80;99.90;;;;;;5072208;28;20621;-76
2021/05/25 04:16:01;;;;;;;0.85;0.80;;;10.80;99.90;;;;;;5071813;28;20195;-76
2021/05/25 04:18:29;;;;;;;1.48;1.02;;;10.90;99.90;;;;;;5071812;28;20415;-76
2021/05/25 04:20:55;;;;;;;1.90;1.02;;;10.80;99.90;;;;;;5058353;28;20788;-77
2021/05/25 04:23:22;;;;;;;1.98;0.80;;;10.80;99.90;;;;;;5051830;28;20229;-76
2021/05/25 04:25:49;;;;;;;2.38;1.75;;;10.70;99.90;;;;;;5053048;28;20191;-77
2021/05/25 04:28:16;;;;;;;2.08;1.35;;;10.70;99.90;;;;;;5052756;28;20273;-77
2021/05/25 04:30:43;;;;;;;1.75;1.13;;;10.60;99.90;;;;;;5061901;28;20650;-76
2021/05/25 04:33:10;;;;;;;1.17;0.90;;;10.80;99.90;;;;;;5071665;28;20202;-77
2021/05/25 04:35:38;;;;;;;1.10;1.00;;;10.70;99.90;;;;;;5073368;28;20649;-77
2021/05/25 04:38:05;;;;;;;1.00;1.00;;;10.80;99.90;;;;;;5073882;28;20191;-77
2021/05/25 04:40:33;;;;;;;2.13;1.20;;;10.70;99.90;;;;;;5072522;28;20221;-77
2021/05/25 04:43:01;;;;;;;0.95;0.95;;;10.70;99.90;;;;;;5074116;28;20195;-77
2021/05/25 04:45:28;;;;;;;2.10;1.20;;;10.80;99.90;;;;;;5070061;28;20293;-76
2021/05/25 04:47:55;;;;;;;1.25;1.00;;;10.80;99.90;;;;;;5071801;28;20292;-77
2021/05/25 04:50:22;;;;;;;1.17;1.08;;;10.90;99.90;;;;;;5054149;28;20716;-77
2021/05/25 04:52:49;;;;;;;2.15;1.35;;;11.00;99.90;;;;;;5053521;28;20202;-77
2021/05/25 04:55:19;;;;;;;2.33;1.00;;;11.00;99.90;;;;;;5054480;28;20258;-77
2021/05/25 04:57:46;;;;;;;0.90;0.90;;;11.00;99.90;;;;;;5053969;28;20290;-77
2021/05/25 05:00:18;;;;;;;1.80;1.10;;;11.10;99.90;;;;;;5052397;28;20215;-77
2021/05/25 05:02:45;;;;;;;1.92;1.17;;;11.10;99.90;;;;;;5053566;28;20290;-77
2021/05/25 05:05:13;;;;;;;1.60;1.10;;;11.10;99.90;;;;;;5053308;28;20227;-77
2021/05/25 05:07:41;;;;;;;1.33;1.00;;;11.10;99.90;;;;;;5052071;28;20333;-77
2021/05/25 05:10:08;;;;;;;2.30;1.10;;;11.10;99.90;;;;;;5053311;28;20577;-77
2021/05/25 05:12:35;;;;;;;1.35;1.25;;;11.20;99.90;;;;;;5053494;28;20591;-77
2021/05/25 05:15:02;;;;;;;1.20;1.10;;;11.20;99.90;;;;;;5054145;28;20203;-77
2021/05/25 05:17:29;;;;;;;1.05;0.90;;;11.20;99.90;;;;;;5052690;28;20195;-78
2021/05/25 05:19:56;;;;;;;1.02;1.00;;;11.30;99.90;;;;;;5055953;28;20277;-77
2021/05/25 05:22:24;;;;;;;1.75;1.02;;;11.30;99.90;;;;;;5057382;28;20195;-77
2021/05/25 05:24:51;;;;;;;1.60;1.40;;;11.20;99.90;;;;;;5057985;28;20594;-77
2021/05/25 05:27:18;;;;;;;2.58;1.42;;;11.10;99.90;;;;;;5057266;28;20219;-77
2021/05/25 05:29:44;;;;;;;1.13;0.98;;;11.20;99.90;;;;;;5038835;28;20317;-77
2021/05/25 05:32:11;;;;;;;1.15;1.05;;;11.10;99.90;;;;;;5056816;28;20302;-77
2021/05/25 05:34:38;;;;;;;1.73;1.45;;;11.20;99.90;;;;;;5057623;28;20279;-77
2021/05/25 05:37:05;;;;;;;0.80;0.80;;;11.10;99.90;;;;;;5056427;28;20195;-77
2021/05/25 05:39:33;;;;;;;1.23;1.13;;;11.20;99.90;;;;;;5068352;28;20199;-77
2021/05/25 05:41:59;;;;;;;1.25;0.98;;;11.20;99.90;;;;;;5075692;28;20286;-77
2021/05/25 05:44:26;;;;;;;1.00;1.00;;;11.20;99.90;;;;;;5075386;28;20191;-77
2021/05/25 05:46:53;;;;;;;1.20;1.10;;;11.30;99.90;;;;;;5076922;28;20250;-77
2021/05/25 05:49:22;;;;;;;1.45;1.00;;;11.50;99.90;;;;;;5073458;28;20206;-77
2021/05/25 05:51:49;;;;;;;1.98;1.30;;;11.50;99.90;;;;;;5070165;28;20191;-77
2021/05/25 05:54:16;;;;;;;2.25;1.48;;;11.40;99.90;;;;;;5056271;28;20192;-76
2021/05/25 05:56:47;;;;;;;1.90;1.10;;;11.30;99.90;;;;;;5058504;28;20199;-77
2021/05/25 05:59:14;;;;;;;2.30;1.40;;;11.30;99.90;;;;;;5055994;28;20191;-76
2021/05/25 06:01:40;;;;;;;1.83;1.30;;;11.40;99.90;;;;;;5058285;28;20306;-77
2021/05/25 06:04:07;;;;;;;3.38;0.95;;;11.30;99.90;;;;;;5057808;28;20191;-77
2021/05/25 06:06:34;;;;;;;0.90;0.90;;;11.30;99.90;;;;;;5057467;28;20561;-77
2021/05/25 06:09:01;;;;;;;1.15;1.08;;;11.40;99.90;;;;;;5056138;28;20227;-77
2021/05/25 06:11:28;;;;;;;1.35;1.23;;;11.50;99.90;;;;;;5056896;28;20234;-77
2021/05/25 06:13:57;;;;;;;1.95;1.10;;;11.60;99.90;;;;;;5060051;28;20218;-76
2021/05/25 06:16:24;;;;;;;1.48;1.33;;;11.60;99.90;;;;;;5059919;28;20213;-76
2021/05/25 06:18:50;;;;;;;2.67;1.23;;;11.60;99.90;;;;;;5055751;28;20222;-77
2021/05/25 06:21:17;;;;;;;2.30;1.67;;;11.60;99.90;;;;;;5053941;28;20244;-76
2021/05/25 06:23:44;;;;;;;1.52;1.23;;;11.80;99.90;;;;;;5055647;28;20215;-77
2021/05/25 06:26:10;;;;;;;5.07;1.38;;;12.00;99.90;;;;;;5056694;28;20199;-77
2021/05/25 06:28:37;;;;;;;2.28;1.17;;;12.20;99.90;;;;;;5057554;28;20231;-77
2021/05/25 06:31:04;;;;;;;2.80;1.15;;;12.20;99.90;;;;;;5055952;28;20233;-77
2021/05/25 06:33:31;;;;;;;2.35;1.23;;;12.20;99.90;;;;;;5059933;28;20366;-77
2021/05/25 06:35:58;;;;;;;4.50;1.25;;;12.20;99.90;;;;;;5073250;28;20206;-77
2021/05/25 06:38:25;;;;;;;1.73;1.60;;;12.50;99.90;;;;;;5056839;28;20187;-77
2021/05/25 06:40:52;;;;;;;2.60;1.55;;;12.30;99.90;;;;;;5055972;28;20211;-77
2021/05/25 06:43:19;;;;;;;2.58;1.35;;;12.30;99.90;;;;;;5057254;28;20199;-76
2021/05/25 06:45:46;;;;;;;3.05;1.20;;;12.30;99.90;;;;;;5072124;28;20281;-80
2021/05/25 06:48:13;;;;;;;2.45;0.90;;;12.10;99.90;;;;;;5077728;28;20207;-78
2021/05/25 06:50:40;;;;;;;1.13;1.00;;;11.90;99.90;;;;;;5074316;28;20215;-79
2021/05/25 06:53:07;;;;;;;2.13;1.08;;;11.70;99.90;;;;;;5076585;28;20669;-81
2021/05/25 06:55:35;;;;;;;3.28;3.03;;;11.70;99.90;;;;;;5075676;28;20198;-78
2021/05/25 06:58:01;;;;;;;6.78;2.42;;;11.70;99.90;;;;;;5077011;28;20194;-78
2021/05/25 07:00:28;;;;;;;1.20;1.08;;;11.90;99.90;;;;;;5076850;28;20234;-79
2021/05/25 07:02:55;;;;;;;1.83;1.33;;;11.80;99.90;;;;;;5078112;28;20195;-79
2021/05/25 07:05:22;;;;;;;1.63;1.30;;;11.80;99.90;;;;;;5076098;28;20293;-79
2021/05/25 07:07:49;;;;;;;1.67;1.23;;;12.00;99.90;;;;;;5072699;28;20187;-79
2021/05/25 07:10:16;;;;;;;2.97;1.40;;;12.10;99.90;;;;;;5059656;28;20227;-78
2021/05/25 07:12:44;;;;;;;3.17;1.10;;;12.10;99.90;;;;;;5075285;28;20203;-79
2021/05/25 07:15:12;;;;;;;1.80;1.05;;;11.90;99.90;;;;;;5073333;28;20248;-78
2021/05/25 07:17:39;;;;;;;0.93;0.93;;;11.80;99.90;;;;;;5058482;28;20203;-78
2021/05/25 07:20:07;;;;;;;1.88;1.20;;;11.80;99.90;;;;;;5058009;28;20603;-79
2021/05/25 07:22:35;;;;;;;1.50;1.08;;;11.80;99.90;;;;;;5079227;28;20197;-80
2021/05/25 07:25:02;;;;;;;1.25;1.10;;;11.70;99.90;;;;;;5085581;28;20297;-80
2021/05/25 07:27:28;;;;;;;1.60;0.82;;;11.70;99.90;;;;;;5086558;28;20217;-79
2021/05/25 07:29:55;;;;;;;1.70;1.00;;;11.80;99.90;;;;;;5078915;28;20248;-81
2021/05/25 07:32:22;;;;;;;3.08;0.90;;;11.90;99.90;;;;;;5073218;28;20206;-81
2021/05/25 07:34:48;;;;;;;2.58;1.08;;;12.10;99.90;;;;;;5085998;28;20202;-80
2021/05/25 07:37:15;;;;;;;1.75;1.00;;;12.20;99.90;;;;;;5080750;28;20692;-81
2021/05/25 07:39:43;;;;;;;2.35;0.65;;;12.30;99.90;;;;;;5065957;28;20242;-80
2021/05/25 07:42:09;;;;;;;1.25;1.20;;;12.00;99.90;;;;;;5083631;28;20194;-79
2021/05/25 07:44:43;;;;;;;2.08;1.00;;;12.20;99.90;;;;;;5080633;28;20206;-79
2021/05/25 07:47:12;;;;;;;1.73;1.17;;;12.50;99.90;;;;;;5077435;28;20195;-80
2021/05/25 07:49:38;;;;;;;0.90;0.90;;;12.50;99.90;;;;;;5081746;28;20262;-81
2021/05/25 07:52:06;;;;;;;1.88;0.73;;;12.50;99.90;;;;;;5068521;28;20214;-79
2021/05/25 07:54:32;;;;;;;2.55;1.00;;;12.50;99.90;;;;;;5076395;28;20209;-78
2021/05/25 07:57:00;;;;;;;0.60;0.60;;;12.10;99.90;;;;;;5084059;28;20195;-81
2021/05/25 07:59:27;;;;;;;2.03;0.82;;;12.10;99.90;;;;;;5064020;28;20199;-79
2021/05/25 08:01:54;;;;;;;0.68;0.60;;;12.10;99.90;;;;;;5069779;28;20194;-79
2021/05/25 08:04:23;;;;;;;0.77;0.70;;;12.20;99.90;;;;;;5066048;28;20195;-82
2021/05/25 08:06:50;;;;;;;0.95;0.90;;;12.30;99.90;;;;;;5075971;28;20280;-79
2021/05/25 08:09:16;;;;;;;1.25;0.82;;;12.10;99.90;;;;;;5086135;28;20210;-81
2021/05/25 08:11:43;;;;;;;1.98;0.90;;;12.40;99.90;;;;;;5075417;28;20206;-80
2021/05/25 08:14:11;;;;;;;0.50;0.50;;;12.50;99.90;;;;;;5083788;28;20670;-78
2021/05/25 08:16:41;;;;;;;0.70;0.65;;;13.00;99.90;;;;;;5083521;28;20202;-79
2021/05/25 08:19:12;;;;;;;1.60;0.55;;;13.80;99.90;;;;;;5083719;28;20602;-80
2021/05/25 08:21:40;;;;;;;0.45;0.45;;;13.60;99.90;;;;;;5081186;28;20226;-80
2021/05/25 08:24:11;;;;;;;2.22;0.60;;;13.30;99.90;;;;;;5071815;28;20200;-80
2021/05/25 08:26:40;;;;;;;0.60;0.60;;;13.10;99.90;;;;;;5065312;28;20248;-81
2021/05/25 08:29:08;;;;;;;0.60;0.45;;;12.80;99.90;;;;;;5063901;28;20747;-80
2021/05/25 08:31:38;;;;;;;0.90;0.75;;;12.70;99.90;;;;;;5069019;28;20295;-79
2021/05/25 08:34:05;;;;;;;4.22;0.90;;;12.80;99.90;;;;;;5084887;28;20194;-79
2021/05/25 08:36:32;;;;;;;6.75;0.88;;;12.80;99.90;;;;;;5085586;28;20289;-78
2021/05/25 08:38:59;;;;;;;0.75;0.57;;;12.60;99.90;;;;;;5079263;28;20539;-79
2021/05/25 08:41:26;;;;;;;1.63;0.70;;;12.30;99.90;;;;;;5082578;28;20210;-79
2021/05/25 08:43:54;;;;;;;3.13;1.08;;;12.40;99.90;;;;;;5086590;28;20199;-80
2021/05/25 08:46:24;;;;;;;5.03;1.00;;;12.40;99.90;;;;;;5079481;28;20191;-82
2021/05/25 08:48:52;;;;;;;1.00;0.70;;;12.40;99.90;;;;;;5083342;28;20222;-80
2021/05/25 08:51:19;;;;;;;1.60;0.95;;;12.30;99.90;;;;;;5085278;28;20214;-81
2021/05/25 08:53:46;;;;;;;0.57;0.50;;;12.30;99.90;;;;;;5079807;28;20202;-79
2021/05/25 08:56:13;;;;;;;1.35;0.88;;;12.10;99.90;;;;;;5081605;28;20217;-80
2021/05/25 08:58:39;;;;;;;0.60;0.60;;;12.10;99.90;;;;;;5080275;28;20293;-81
2021/05/25 09:01:06;;;;;;;1.88;0.98;;;12.30;99.90;;;;;;5078456;28;20221;-78
2021/05/25 09:03:33;;;;;;;0.65;0.65;;;12.80;99.90;;;;;;5079727;28;20207;-78
2021/05/25 09:06:07;;;;;;;0.40;0.40;;;12.90;99.90;;;;;;5070346;28;20199;-80
2021/05/25 09:08:37;;;;;;;1.55;0.55;;;12.80;99.90;;;;;;5061079;28;20605;-79
2021/05/25 09:11:08;;;;;;;0.85;0.85;;;12.40;99.90;;;;;;5057798;28;20273;-80
2021/05/25 09:13:35;;;;;;;0.60;0.50;;;12.30;99.90;;;;;;5056270;28;20199;-81
2021/05/25 09:16:07;;;;;;;0.52;0.52;;;12.10;99.90;;;;;;5055988;28;20201;-79
2021/05/25 09:18:44;;;;;;;1.67;1.05;;;11.80;99.90;;;;;;5056194;28;20195;-80
2021/05/25 09:21:29;;;;;;;0.68;0.65;;;11.80;99.90;;;;;;5057172;28;20774;-79
2021/05/25 09:23:56;;;;;;;0.68;0.60;;;11.60;99.90;;;;;;5058157;28;20245;-79
2021/05/25 09:26:27;;;;;;;0.47;0.47;;;11.80;99.90;;;;;;5056404;28;20195;-79
2021/05/25 09:28:56;;;;;;;0.65;0.50;;;11.80;99.90;;;;;;5055526;28;20314;-79
2021/05/25 09:31:36;;;;;;;0.80;0.40;;;11.90;99.90;;;;;;5053348;28;20246;-78
2021/05/25 09:34:08;;;;;;;0.50;0.50;;;11.90;99.90;;;;;;5052655;28;20290;-80
2021/05/25 09:36:59;;;;;;;0.45;0.45;;;11.90;99.90;;;;;;5056466;28;20192;-78
2021/05/25 09:39:26;;;;;;;1.10;0.60;;;12.40;99.90;;;;;;5052979;28;20202;-78
2021/05/25 09:41:59;;;;;;;0.50;0.50;;;12.90;99.90;;;;;;5066222;28;20328;-80
2021/05/25 09:44:26;;;;;;;0.60;0.60;;;13.40;99.90;;;;;;5056587;28;20204;-79
2021/05/25 09:46:52;;;;;;;1.00;0.50;;;13.50;99.90;;;;;;5068867;28;20203;-79
2021/05/25 09:49:20;;;;;;;0.50;0.50;;;13.70;99.90;;;;;;5072448;28;20289;-77
2021/05/25 09:51:47;;;;;;;0.38;0.38;;;14.00;99.90;;;;;;5074432;28;20195;-78
2021/05/25 09:54:24;;;;;;;0.40;0.40;;;14.00;99.90;;;;;;5068470;28;20195;-78
2021/05/25 09:57:03;;;;;;;2.25;0.60;;;13.80;99.90;;;;;;5055503;28;20191;-80
2021/05/25 09:59:32;;;;;;;1.05;0.65;;;13.40;99.90;;;;;;5052792;28;20282;-78
2021/05/25 10:02:17;;;;;;;0.38;0.38;;;13.20;99.90;;;;;;5053362;28;20204;-80
2021/05/25 10:05:08;;;;;;;0.70;0.70;;;13.40;99.90;;;;;;5054174;28;20191;-77
2021/05/25 10:07:36;;;;;;;1.38;0.40;;;13.90;99.90;;;;;;5052175;28;20191;-79
2021/05/25 10:10:05;;;;;;;0.70;0.60;;;14.10;99.90;;;;;;5067103;28;20219;-78
2021/05/25 10:12:32;;;;;;;1.42;0.70;;;14.20;99.90;;;;;;5055508;28;20637;-78
2021/05/25 10:14:59;;;;;;;1.05;0.75;;;14.30;99.90;;;;;;5060364;28;20218;-79
2021/05/25 10:17:43;;;;;;;0.50;0.50;;;14.60;99.90;;;;;;5056291;28;21681;-79
2021/05/25 10:20:11;;;;;;;0.50;0.50;;;15.00;99.90;;;;;;5076904;28;20222;-79
2021/05/25 10:22:39;;;;;;;0.93;0.57;;;14.90;99.90;;;;;;5061053;28;20633;-78
2021/05/25 10:25:12;;;;;;;1.17;0.60;;;15.10;99.90;;;;;;5065097;28;20195;-79
2021/05/25 10:27:39;;;;;;;2.03;0.70;;;14.90;99.90;;;;;;5061379;28;20187;-79
2021/05/25 10:30:36;;;;;;;0.40;0.40;;;14.20;99.90;;;;;;5069453;28;20226;-79
2021/05/25 10:33:33;;;;;;;0.95;0.45;;;13.90;99.90;;;;;;5069532;28;20195;-78
2021/05/25 10:36:09;;;;;;;0.45;0.45;;;14.10;99.90;;;;;;5056341;28;20634;-78
2021/05/25 10:38:54;;;;;;;0.50;0.50;;;13.80;99.90;;;;;;5056490;28;20190;-79
2021/05/25 10:41:32;;;;;;;1.00;0.60;;;13.10;99.90;;;;;;5067228;28;20284;-79
2021/05/25 10:43:58;;;;;;;1.63;0.60;;;12.30;99.90;;;;;;5076188;28;20244;-78
2021/05/25 10:46:28;;;;;;;0.40;0.40;;;11.90;99.90;;;;;;5060648;28;20205;-79
2021/05/25 10:49:04;;;;;;;1.52;0.75;;;11.60;99.90;;;;;;5059785;28;20787;-79
2021/05/25 10:52:14;;;;;;;0.68;0.68;;;11.40;99.90;;;;;;5056486;28;20211;-79
2021/05/25 10:54:55;;;;;;;0.60;0.60;;;11.60;99.90;;;;;;5056298;28;20200;-80
2021/05/25 10:57:32;;;;;;;0.50;0.50;;;11.80;99.90;;;;;;5055135;28;20204;-78
2021/05/25 11:00:05;;;;;;;1.85;0.85;;;12.00;99.90;;;;;;5055387;28;20212;-79
2021/05/25 11:02:47;;;;;;;1.10;0.60;;;12.50;99.90;;;;;;5061445;28;20186;-78
2021/05/25 11:05:46;;;;;;;1.00;0.57;;;12.90;99.90;;;;;;5062990;28;20512;-78
2021/05/25 11:08:28;;;;;;;0.70;0.40;;;13.30;99.90;;;;;;5055686;28;20689;-79
2021/05/25 11:11:08;;;;;;;0.50;0.47;;;13.90;99.90;;;;;;5070018;28;20646;-79
2021/05/25 11:13:45;;;;;;;0.60;0.60;;;13.90;99.90;;;;;;5075495;28;20733;-79
2021/05/25 11:16:14;;;;;;;0.50;0.50;;;14.20;99.90;;;;;;5075008;28;20605;-78
2021/05/25 11:18:45;;;;;;;0.43;0.43;;;14.30;99.90;;;;;;5060548;28;20211;-80
2021/05/25 11:21:47;;;;;;;0.63;0.63;;;14.40;99.90;;;;;;5064870;28;20576;-78
2021/05/25 11:24:30;;;;;;;1.30;0.60;;;14.30;99.90;;;;;;5058779;28;20209;-81
2021/05/25 11:27:00;;;;;;;2.05;0.82;;;14.00;99.90;;;;;;5056437;28;20737;-80
2021/05/25 11:29:29;;;;;;;0.55;0.55;;;13.30;99.90;;;;;;5055622;28;20223;-80
2021/05/25 11:31:58;;;;;;;0.40;0.40;;;12.90;99.90;;;;;;5056402;28;20199;-80
2021/05/25 11:34:27;;;;;;;0.65;0.65;;;12.40;99.90;;;;;;5058219;28;20644;-80
2021/05/25 11:37:02;;;;;;;0.40;0.40;;;12.10;99.90;;;;;;5057855;28;20253;-81
2021/05/25 11:39:32;;;;;;;0.50;0.50;;;12.20;99.90;;;;;;5059648;28;20191;-79
2021/05/25 11:41:59;;;;;;;1.20;0.57;;;12.20;99.90;;;;;;5067159;28;20194;-79
2021/05/25 11:44:38;;;;;;;1.55;0.40;;;12.30;99.90;;;;;;5057233;28;20238;-80
2021/05/25 11:47:06;;;;;;;0.40;0.40;;;12.20;99.90;;;;;;5076534;28;20201;-81
2021/05/25 11:49:38;;;;;;;0.57;0.50;;;12.10;99.90;;;;;;5068275;28;20278;-81
2021/05/25 11:52:23;;;;;;;0.50;0.50;;;12.10;99.90;;;;;;5059424;28;20238;-80
2021/05/25 11:54:51;;;;;;;0.40;0.40;;;12.40;99.90;;;;;;5058488;28;20191;-80
2021/05/25 11:57:29;;;;;;;0.57;0.57;;;12.60;99.90;;;;;;5063229;28;20608;-80
2021/05/25 11:59:57;;;;;;;0.85;0.85;;;12.90;99.90;;;;;;5066752;28;20231;-81
2021/05/25 12:02:28;;;;;;;0.40;0.40;;;13.20;99.90;;;;;;5066304;28;20666;-79
2021/05/25 12:05:18;;;;;;;0.68;0.68;;;13.30;99.90;;;;;;5064350;28;20204;-80
2021/05/25 12:07:47;;;;;;;1.13;0.68;;;14.00;99.90;;;;;;5057210;28;20191;-79
2021/05/25 12:10:16;;;;;;;0.50;0.50;;;13.70;99.90;;;;;;5075376;28;20226;-80
2021/05/25 12:12:45;;;;;;;0.63;0.63;;;13.60;99.90;;;;;;5071860;28;20195;-79
2021/05/25 12:15:23;;;;;;;0.93;0.70;;;13.80;99.90;;;;;;5073800;28;20214;-80
2021/05/25 12:17:52;;;;;;;0.93;0.90;;;13.80;99.90;;;;;;5070020;28;20196;-81
2021/05/25 12:20:20;;;;;;;0.80;0.80;;;13.60;99.90;;;;;;5074624;28;20352;-81
2021/05/25 12:22:52;;;;;;;3.97;0.88;;;13.30;99.90;;;;;;5064223;28;20253;-82
2021/05/25 12:25:22;;;;;;;1.05;0.80;;;13.10;99.90;;;;;;5083367;28;20278;-82
2021/05/25 12:28:18;;;;;;;2.10;1.48;;;12.80;99.90;;;;;;5083317;28;20207;-83
2021/05/25 12:35:40;;;;;;;;;;;;;;;;;;;;;
2021/05/25 12:38:24;;;;;;;0.73;0.73;;;12.50;99.90;;;;;;5009715;28;20207;-81
2021/05/25 12:41:01;;;;;;;0.65;0.65;;;12.70;99.90;;;;;;5056660;28;20226;-81
2021/05/25 12:43:33;;;;;;;0.77;0.77;;;13.00;99.90;;;;;;5082686;28;20198;-80
2021/05/25 12:46:07;;;;;;;1.50;0.73;;;13.30;99.90;;;;;;5074404;28;20335;-81
2021/05/25 12:48:36;;;;;;;0.70;0.70;;;13.10;99.90;;;;;;5061469;28;20571;-80
2021/05/25 12:51:05;;;;;;;0.70;0.70;;;13.30;99.90;;;;;;5070551;28;20692;-79
2021/05/25 12:53:46;;;;;;;0.70;0.70;;;13.50;99.90;;;;;;5074525;28;20202;-79
2021/05/25 12:56:17;;;;;;;1.23;0.90;;;13.90;99.90;;;;;;5056576;28;20203;-79
2021/05/25 12:58:45;;;;;;;0.75;0.75;;;14.00;99.90;;;;;;5068655;28;20223;-79
2021/05/25 13:01:30;;;;;;;0.77;0.77;;;14.50;99.90;;;;;;5074701;28;20206;-78
2021/05/25 13:04:24;;;;;;;0.90;0.90;;;14.60;99.90;;;;;;5069939;28;20205;-79
2021/05/25 13:06:55;;;;;;;1.08;1.08;;;15.00;99.90;;;;;;5059697;28;20199;-79